sensor_id;sensor_type;location;lat;lon;timestamp;P1;durP1;ratioP1;P2;durP2;ratioP2
40953;SDS011;26686;50.130;8.710;2023-07-13T00:00:43;1.90;;;0.50;;
40953;SDS011;26686;50.130;8.710;2023-07-13T00:05:44;1.58;;;0.50;;
40953;SDS011;26686;50.130;8.710;2023-07-13T00:10:46;2.03;;;0.52;;
40953;SDS011;26686;50.130;8.710;2023-07-13T00:15:47;1.80;;;0.60;;
40953;SDS011;26686;50.130;8.710;2023-07-13T00:20:49;1.75;;;0.63;;
40953;SDS011;26686;50.130;8.710;2023-07-13T00:25:51;1.75;;;0.77;;
40953;SDS011;26686;50.130;8.710;2023-07-13T00:30:52;1.70;;;0.63;;
40953;SDS011;26686;50.130;8.710;2023-07-13T00:35:55;1.33;;;0.50;;
40953;SDS011;26686;50.130;8.710;2023-07-13T00:40:57;1.70;;;1.02;;
40953;SDS011;26686;50.130;8.710;2023-07-13T00:51:00;3.03;;;0.95;;
40953;SDS011;26686;50.130;8.710;2023-07-13T01:01:05;2.45;;;0.60;;
40953;SDS011;26686;50.130;8.710;2023-07-13T01:06:06;3.67;;;0.95;;
40953;SDS011;26686;50.130;8.710;2023-07-13T01:11:08;2.78;;;0.90;;
40953;SDS011;26686;50.130;8.710;2023-07-13T01:16:19;2.05;;;0.68;;
40953;SDS011;26686;50.130;8.710;2023-07-13T01:21:26;1.98;;;0.73;;
40953;SDS011;26686;50.130;8.710;2023-07-13T01:31:30;1.67;;;0.82;;
40953;SDS011;26686;50.130;8.710;2023-07-13T01:36:32;2.25;;;0.70;;
40953;SDS011;26686;50.130;8.710;2023-07-13T01:41:34;1.30;;;0.60;;
40953;SDS011;26686;50.130;8.710;2023-07-13T01:46:35;2.20;;;0.50;;
40953;SDS011;26686;50.130;8.710;2023-07-13T01:51:36;4.90;;;0.70;;
40953;SDS011;26686;50.130;8.710;2023-07-13T01:56:38;2.55;;;0.77;;
40953;SDS011;26686;50.130;8.710;2023-07-13T02:01:41;1.90;;;0.63;;
40953;SDS011;26686;50.130;8.710;2023-07-13T02:06:42;4.82;;;0.40;;
40953;SDS011;26686;50.130;8.710;2023-07-13T02:11:43;4.43;;;0.52;;
40953;SDS011;26686;50.130;8.710;2023-07-13T02:16:45;3.30;;;0.70;;
40953;SDS011;26686;50.130;8.710;2023-07-13T02:21:46;3.30;;;0.70;;
40953;SDS011;26686;50.130;8.710;2023-07-13T02:26:48;2.58;;;0.60;;
40953;SDS011;26686;50.130;8.710;2023-07-13T02:31:49;2.60;;;0.52;;
40953;SDS011;26686;50.130;8.710;2023-07-13T02:36:50;1.90;;;0.50;;
40953;SDS011;26686;50.130;8.710;2023-07-13T02:41:52;3.33;;;0.40;;
40953;SDS011;26686;50.130;8.710;2023-07-13T02:46:53;2.35;;;0.90;;
40953;SDS011;26686;50.130;8.710;2023-07-13T02:51:55;1.52;;;0.43;;
40953;SDS011;26686;50.130;8.710;2023-07-13T02:56:56;4.38;;;0.60;;
40953;SDS011;26686;50.130;8.710;2023-07-13T03:01:58;2.63;;;0.70;;
40953;SDS011;26686;50.130;8.710;2023-07-13T03:06:59;2.05;;;0.60;;
40953;SDS011;26686;50.130;8.710;2023-07-13T03:12:00;2.65;;;0.43;;
40953;SDS011;26686;50.130;8.710;2023-07-13T03:17:02;1.65;;;0.57;;
40953;SDS011;26686;50.130;8.710;2023-07-13T03:22:04;3.88;;;0.52;;
40953;SDS011;26686;50.130;8.710;2023-07-13T03:27:06;1.15;;;0.45;;
40953;SDS011;26686;50.130;8.710;2023-07-13T03:32:08;2.05;;;0.65;;
40953;SDS011;26686;50.130;8.710;2023-07-13T03:37:09;1.35;;;0.30;;
40953;SDS011;26686;50.130;8.710;2023-07-13T03:42:10;3.70;;;1.50;;
40953;SDS011;26686;50.130;8.710;2023-07-13T03:47:12;1.83;;;0.45;;
40953;SDS011;26686;50.130;8.710;2023-07-13T03:52:13;2.40;;;0.63;;
40953;SDS011;26686;50.130;8.710;2023-07-13T03:57:15;2.60;;;0.88;;
40953;SDS011;26686;50.130;8.710;2023-07-13T04:02:16;1.20;;;0.50;;
40953;SDS011;26686;50.130;8.710;2023-07-13T04:07:18;2.00;;;0.57;;
40953;SDS011;26686;50.130;8.710;2023-07-13T04:12:20;4.85;;;0.60;;
40953;SDS011;26686;50.130;8.710;2023-07-13T04:17:21;3.15;;;0.77;;
40953;SDS011;26686;50.130;8.710;2023-07-13T04:22:23;2.40;;;0.50;;
40953;SDS011;26686;50.130;8.710;2023-07-13T04:27:24;2.67;;;0.68;;
40953;SDS011;26686;50.130;8.710;2023-07-13T04:32:26;2.42;;;0.47;;
40953;SDS011;26686;50.130;8.710;2023-07-13T04:37:28;2.85;;;1.00;;
40953;SDS011;26686;50.130;8.710;2023-07-13T04:42:30;3.27;;;0.63;;
40953;SDS011;26686;50.130;8.710;2023-07-13T04:47:31;3.60;;;0.60;;
40953;SDS011;26686;50.130;8.710;2023-07-13T04:52:33;2.38;;;1.08;;
40953;SDS011;26686;50.130;8.710;2023-07-13T04:57:35;3.40;;;0.85;;
40953;SDS011;26686;50.130;8.710;2023-07-13T05:02:37;2.85;;;0.68;;
40953;SDS011;26686;50.130;8.710;2023-07-13T05:07:39;2.23;;;0.50;;
40953;SDS011;26686;50.130;8.710;2023-07-13T05:12:41;1.38;;;0.30;;
40953;SDS011;26686;50.130;8.710;2023-07-13T05:17:43;3.03;;;0.60;;
40953;SDS011;26686;50.130;8.710;2023-07-13T05:22:44;4.20;;;0.50;;
40953;SDS011;26686;50.130;8.710;2023-07-13T05:27:48;1.90;;;0.50;;
40953;SDS011;26686;50.130;8.710;2023-07-13T05:32:50;1.73;;;0.50;;
40953;SDS011;26686;50.130;8.710;2023-07-13T05:37:51;4.07;;;0.57;;
40953;SDS011;26686;50.130;8.710;2023-07-13T05:42:53;3.05;;;0.50;;
40953;SDS011;26686;50.130;8.710;2023-07-13T05:47:54;3.00;;;0.45;;
40953;SDS011;26686;50.130;8.710;2023-07-13T05:52:56;1.10;;;0.35;;
40953;SDS011;26686;50.130;8.710;2023-07-13T05:57:57;2.65;;;0.30;;
40953;SDS011;26686;50.130;8.710;2023-07-13T06:02:59;2.33;;;0.40;;
40953;SDS011;26686;50.130;8.710;2023-07-13T06:08:01;3.33;;;0.68;;
40953;SDS011;26686;50.130;8.710;2023-07-13T06:13:02;2.17;;;0.35;;
40953;SDS011;26686;50.130;8.710;2023-07-13T06:18:04;1.90;;;0.40;;
40953;SDS011;26686;50.130;8.710;2023-07-13T06:23:06;1.15;;;0.40;;
40953;SDS011;26686;50.130;8.710;2023-07-13T06:28:07;2.78;;;0.40;;
40953;SDS011;26686;50.130;8.710;2023-07-13T06:33:08;0.73;;;0.30;;
40953;SDS011;26686;50.130;8.710;2023-07-13T06:38:10;1.70;;;0.47;;
40953;SDS011;26686;50.130;8.710;2023-07-13T06:43:11;4.07;;;0.90;;
40953;SDS011;26686;50.130;8.710;2023-07-13T06:48:13;3.08;;;0.80;;
40953;SDS011;26686;50.130;8.710;2023-07-13T06:53:17;1.13;;;0.50;;
40953;SDS011;26686;50.130;8.710;2023-07-13T06:58:19;2.10;;;0.40;;
40953;SDS011;26686;50.130;8.710;2023-07-13T07:03:20;3.45;;;0.52;;
40953;SDS011;26686;50.130;8.710;2023-07-13T07:08:22;1.40;;;0.22;;
40953;SDS011;26686;50.130;8.710;2023-07-13T07:13:23;3.25;;;0.47;;
40953;SDS011;26686;50.130;8.710;2023-07-13T07:18:25;2.03;;;0.43;;
40953;SDS011;26686;50.130;8.710;2023-07-13T07:23:27;2.63;;;0.90;;
40953;SDS011;26686;50.130;8.710;2023-07-13T07:28:29;2.47;;;0.60;;
40953;SDS011;26686;50.130;8.710;2023-07-13T07:33:43;3.85;;;0.65;;
40953;SDS011;26686;50.130;8.710;2023-07-13T07:38:44;3.25;;;0.55;;
40953;SDS011;26686;50.130;8.710;2023-07-13T07:43:46;2.28;;;0.40;;
40953;SDS011;26686;50.130;8.710;2023-07-13T07:48:47;2.17;;;0.52;;
40953;SDS011;26686;50.130;8.710;2023-07-13T07:53:49;1.65;;;0.32;;
40953;SDS011;26686;50.130;8.710;2023-07-13T07:58:50;2.72;;;0.70;;
40953;SDS011;26686;50.130;8.710;2023-07-13T08:03:55;2.17;;;0.30;;
40953;SDS011;26686;50.130;8.710;2023-07-13T08:08:59;1.10;;;0.40;;
40953;SDS011;26686;50.130;8.710;2023-07-13T08:14:02;2.17;;;0.30;;
40953;SDS011;26686;50.130;8.710;2023-07-13T08:19:04;1.48;;;0.40;;
40953;SDS011;26686;50.130;8.710;2023-07-13T08:24:07;1.80;;;0.50;;
40953;SDS011;26686;50.130;8.710;2023-07-13T08:29:08;0.70;;;0.25;;
40953;SDS011;26686;50.130;8.710;2023-07-13T08:34:10;2.20;;;0.65;;
40953;SDS011;26686;50.130;8.710;2023-07-13T08:39:11;1.23;;;0.50;;
40953;SDS011;26686;50.130;8.710;2023-07-13T08:44:17;5.35;;;1.27;;
40953;SDS011;26686;50.130;8.710;2023-07-13T08:49:23;2.47;;;0.40;;
40953;SDS011;26686;50.130;8.710;2023-07-13T08:59:30;3.35;;;0.30;;
40953;SDS011;26686;50.130;8.710;2023-07-13T09:04:40;2.42;;;0.40;;
40953;SDS011;26686;50.130;8.710;2023-07-13T09:10:01;1.67;;;0.30;;
40953;SDS011;26686;50.130;8.710;2023-07-13T09:20:41;1.58;;;0.40;;
40953;SDS011;26686;50.130;8.710;2023-07-13T09:25:48;2.47;;;0.50;;
40953;SDS011;26686;50.130;8.710;2023-07-13T09:31:00;1.55;;;0.30;;
40953;SDS011;26686;50.130;8.710;2023-07-13T09:41:19;2.53;;;0.30;;
40953;SDS011;26686;50.130;8.710;2023-07-13T09:46:29;1.45;;;0.25;;
40953;SDS011;26686;50.130;8.710;2023-07-13T09:51:31;1.77;;;0.70;;
40953;SDS011;26686;50.130;8.710;2023-07-13T09:56:32;2.28;;;0.50;;
40953;SDS011;26686;50.130;8.710;2023-07-13T10:01:35;2.28;;;0.22;;
40953;SDS011;26686;50.130;8.710;2023-07-13T10:06:39;2.45;;;0.75;;
40953;SDS011;26686;50.130;8.710;2023-07-13T10:11:44;0.95;;;0.30;;
40953;SDS011;26686;50.130;8.710;2023-07-13T10:16:46;2.00;;;0.40;;
40953;SDS011;26686;50.130;8.710;2023-07-13T10:21:58;1.70;;;0.43;;
40953;SDS011;26686;50.130;8.710;2023-07-13T10:32:21;1.27;;;0.40;;
40953;SDS011;26686;50.130;8.710;2023-07-13T10:37:26;2.00;;;0.30;;
40953;SDS011;26686;50.130;8.710;2023-07-13T10:42:33;0.95;;;0.20;;
40953;SDS011;26686;50.130;8.710;2023-07-13T10:47:38;2.10;;;0.30;;
40953;SDS011;26686;50.130;8.710;2023-07-13T10:52:41;3.20;;;0.60;;
40953;SDS011;26686;50.130;8.710;2023-07-13T10:57:51;1.65;;;0.40;;
40953;SDS011;26686;50.130;8.710;2023-07-13T11:02:56;1.67;;;0.60;;
40953;SDS011;26686;50.130;8.710;2023-07-13T11:18:50;1.25;;;0.40;;
40953;SDS011;26686;50.130;8.710;2023-07-13T11:23:54;3.50;;;1.10;;
40953;SDS011;26686;50.130;8.710;2023-07-13T11:29:37;2.00;;;0.68;;
40953;SDS011;26686;50.130;8.710;2023-07-13T11:34:40;4.30;;;0.65;;
40953;SDS011;26686;50.130;8.710;2023-07-13T11:39:43;1.23;;;0.40;;
40953;SDS011;26686;50.130;8.710;2023-07-13T11:44:49;1.20;;;0.40;;
40953;SDS011;26686;50.130;8.710;2023-07-13T11:50:17;1.38;;;0.30;;
40953;SDS011;26686;50.130;8.710;2023-07-13T11:55:22;1.63;;;0.43;;
40953;SDS011;26686;50.130;8.710;2023-07-13T12:00:26;1.30;;;0.38;;
40953;SDS011;26686;50.130;8.710;2023-07-13T12:05:31;2.63;;;0.57;;
40953;SDS011;26686;50.130;8.710;2023-07-13T12:10:33;0.87;;;0.50;;
40953;SDS011;26686;50.130;8.710;2023-07-13T12:20:39;1.13;;;0.50;;
40953;SDS011;26686;50.130;8.710;2023-07-13T12:25:40;1.40;;;0.60;;
40953;SDS011;26686;50.130;8.710;2023-07-13T12:30:42;2.28;;;0.52;;
40953;SDS011;26686;50.130;8.710;2023-07-13T12:35:49;4.20;;;0.50;;
40953;SDS011;26686;50.130;8.710;2023-07-13T12:40:53;3.03;;;0.60;;
40953;SDS011;26686;50.130;8.710;2023-07-13T12:45:56;2.97;;;0.47;;
40953;SDS011;26686;50.130;8.710;2023-07-13T12:51:00;2.08;;;0.50;;
40953;SDS011;26686;50.130;8.710;2023-07-13T12:56:03;2.47;;;0.40;;
40953;SDS011;26686;50.130;8.710;2023-07-13T13:01:05;1.30;;;0.75;;
40953;SDS011;26686;50.130;8.710;2023-07-13T13:11:18;1.75;;;0.30;;
40953;SDS011;26686;50.130;8.710;2023-07-13T13:16:30;2.25;;;0.40;;
40953;SDS011;26686;50.130;8.710;2023-07-13T13:21:33;2.25;;;0.77;;
40953;SDS011;26686;50.130;8.710;2023-07-13T13:26:35;2.10;;;0.70;;
40953;SDS011;26686;50.130;8.710;2023-07-13T13:31:36;1.50;;;0.40;;
40953;SDS011;26686;50.130;8.710;2023-07-13T13:36:38;3.25;;;0.40;;
40953;SDS011;26686;50.130;8.710;2023-07-13T13:41:39;1.45;;;0.50;;
40953;SDS011;26686;50.130;8.710;2023-07-13T13:46:41;1.45;;;0.40;;
40953;SDS011;26686;50.130;8.710;2023-07-13T13:51:44;3.65;;;0.60;;
40953;SDS011;26686;50.130;8.710;2023-07-13T13:56:47;1.42;;;0.95;;
40953;SDS011;26686;50.130;8.710;2023-07-13T14:01:50;3.30;;;0.80;;
40953;SDS011;26686;50.130;8.710;2023-07-13T14:06:52;1.07;;;0.23;;
40953;SDS011;26686;50.130;8.710;2023-07-13T14:11:53;1.73;;;0.60;;
40953;SDS011;26686;50.130;8.710;2023-07-13T14:16:55;2.83;;;0.43;;
40953;SDS011;26686;50.130;8.710;2023-07-13T14:21:57;0.93;;;0.30;;
40953;SDS011;26686;50.130;8.710;2023-07-13T14:26:59;2.58;;;0.45;;
40953;SDS011;26686;50.130;8.710;2023-07-13T14:32:00;2.75;;;0.77;;
40953;SDS011;26686;50.130;8.710;2023-07-13T14:37:02;1.55;;;0.20;;
40953;SDS011;26686;50.130;8.710;2023-07-13T14:42:05;1.65;;;0.40;;
40953;SDS011;26686;50.130;8.710;2023-07-13T14:47:07;1.88;;;0.50;;
40953;SDS011;26686;50.130;8.710;2023-07-13T14:52:11;1.23;;;0.30;;
40953;SDS011;26686;50.130;8.710;2023-07-13T14:57:16;3.75;;;0.57;;
40953;SDS011;26686;50.130;8.710;2023-07-13T15:02:27;1.13;;;0.40;;
40953;SDS011;26686;50.130;8.710;2023-07-13T15:07:31;1.55;;;0.30;;
40953;SDS011;26686;50.130;8.710;2023-07-13T15:17:39;1.80;;;0.40;;
40953;SDS011;26686;50.130;8.710;2023-07-13T15:22:42;2.50;;;0.43;;
40953;SDS011;26686;50.130;8.710;2023-07-13T15:27:44;2.50;;;0.45;;
40953;SDS011;26686;50.130;8.710;2023-07-13T15:32:46;1.55;;;0.60;;
40953;SDS011;26686;50.130;8.710;2023-07-13T15:37:48;1.43;;;0.30;;
40953;SDS011;26686;50.130;8.710;2023-07-13T15:47:53;3.53;;;0.60;;
40953;SDS011;26686;50.130;8.710;2023-07-13T15:52:55;1.63;;;0.47;;
40953;SDS011;26686;50.130;8.710;2023-07-13T15:57:59;0.95;;;0.38;;
40953;SDS011;26686;50.130;8.710;2023-07-13T16:03:01;1.93;;;0.40;;
40953;SDS011;26686;50.130;8.710;2023-07-13T16:08:03;1.25;;;0.50;;
40953;SDS011;26686;50.130;8.710;2023-07-13T16:13:25;1.33;;;0.30;;
40953;SDS011;26686;50.130;8.710;2023-07-13T16:18:27;1.00;;;0.40;;
40953;SDS011;26686;50.130;8.710;2023-07-13T16:23:28;1.33;;;0.43;;
40953;SDS011;26686;50.130;8.710;2023-07-13T16:28:33;4.35;;;0.50;;
40953;SDS011;26686;50.130;8.710;2023-07-13T16:33:35;1.38;;;0.70;;
40953;SDS011;26686;50.130;8.710;2023-07-13T16:38:36;1.38;;;0.30;;
40953;SDS011;26686;50.130;8.710;2023-07-13T16:43:38;1.67;;;0.32;;
40953;SDS011;26686;50.130;8.710;2023-07-13T16:48:41;1.33;;;0.45;;
40953;SDS011;26686;50.130;8.710;2023-07-13T16:53:43;1.45;;;0.50;;
40953;SDS011;26686;50.130;8.710;2023-07-13T16:58:45;1.65;;;0.55;;
40953;SDS011;26686;50.130;8.710;2023-07-13T17:03:47;3.42;;;0.65;;
40953;SDS011;26686;50.130;8.710;2023-07-13T17:08:49;2.17;;;0.70;;
40953;SDS011;26686;50.130;8.710;2023-07-13T17:13:55;1.08;;;0.30;;
40953;SDS011;26686;50.130;8.710;2023-07-13T17:18:56;2.17;;;0.82;;
40953;SDS011;26686;50.130;8.710;2023-07-13T17:23:59;1.48;;;0.52;;
40953;SDS011;26686;50.130;8.710;2023-07-13T17:29:01;0.57;;;0.22;;
40953;SDS011;26686;50.130;8.710;2023-07-13T17:34:02;0.90;;;0.55;;
40953;SDS011;26686;50.130;8.710;2023-07-13T17:39:13;1.92;;;0.45;;
40953;SDS011;26686;50.130;8.710;2023-07-13T17:44:17;1.60;;;0.50;;
40953;SDS011;26686;50.130;8.710;2023-07-13T17:49:20;1.13;;;0.40;;
40953;SDS011;26686;50.130;8.710;2023-07-13T17:54:32;2.73;;;0.60;;
40953;SDS011;26686;50.130;8.710;2023-07-13T17:59:34;2.50;;;0.90;;
40953;SDS011;26686;50.130;8.710;2023-07-13T18:04:35;1.30;;;0.70;;
40953;SDS011;26686;50.130;8.710;2023-07-13T18:09:38;1.55;;;0.63;;
40953;SDS011;26686;50.130;8.710;2023-07-13T18:14:46;1.50;;;0.80;;
40953;SDS011;26686;50.130;8.710;2023-07-13T18:19:48;1.70;;;0.43;;
40953;SDS011;26686;50.130;8.710;2023-07-13T18:29:53;2.00;;;0.75;;
40953;SDS011;26686;50.130;8.710;2023-07-13T18:34:57;1.95;;;0.40;;
40953;SDS011;26686;50.130;8.710;2023-07-13T18:40:01;3.55;;;0.68;;
40953;SDS011;26686;50.130;8.710;2023-07-13T18:45:03;1.83;;;0.55;;
40953;SDS011;26686;50.130;8.710;2023-07-13T18:50:21;1.03;;;0.27;;
40953;SDS011;26686;50.130;8.710;2023-07-13T18:55:28;2.25;;;0.60;;
40953;SDS011;26686;50.130;8.710;2023-07-13T19:00:30;1.60;;;0.60;;
40953;SDS011;26686;50.130;8.710;2023-07-13T19:05:32;1.38;;;0.60;;
40953;SDS011;26686;50.130;8.710;2023-07-13T19:10:54;2.08;;;0.60;;
40953;SDS011;26686;50.130;8.710;2023-07-13T19:15:56;1.23;;;0.80;;
40953;SDS011;26686;50.130;8.710;2023-07-13T19:20:58;2.30;;;0.60;;
40953;SDS011;26686;50.130;8.710;2023-07-13T19:31:20;1.73;;;0.63;;
40953;SDS011;26686;50.130;8.710;2023-07-13T19:36:25;1.42;;;0.80;;
40953;SDS011;26686;50.130;8.710;2023-07-13T19:41:27;3.07;;;0.90;;
40953;SDS011;26686;50.130;8.710;2023-07-13T19:46:31;2.53;;;1.37;;
40953;SDS011;26686;50.130;8.710;2023-07-13T19:51:35;1.60;;;0.88;;
40953;SDS011;26686;50.130;8.710;2023-07-13T19:56:36;2.55;;;1.30;;
40953;SDS011;26686;50.130;8.710;2023-07-13T20:01:38;2.45;;;0.95;;
40953;SDS011;26686;50.130;8.710;2023-07-13T20:06:39;1.83;;;1.25;;
40953;SDS011;26686;50.130;8.710;2023-07-13T20:11:41;2.50;;;1.10;;
40953;SDS011;26686;50.130;8.710;2023-07-13T20:16:43;3.17;;;1.38;;
40953;SDS011;26686;50.130;8.710;2023-07-13T20:21:45;2.50;;;1.10;;
40953;SDS011;26686;50.130;8.710;2023-07-13T20:26:47;2.30;;;1.27;;
40953;SDS011;26686;50.130;8.710;2023-07-13T20:31:49;3.47;;;1.10;;
40953;SDS011;26686;50.130;8.710;2023-07-13T20:36:51;4.13;;;1.20;;
40953;SDS011;26686;50.130;8.710;2023-07-13T20:41:54;6.85;;;1.90;;
40953;SDS011;26686;50.130;8.710;2023-07-13T20:46:55;2.78;;;1.38;;
40953;SDS011;26686;50.130;8.710;2023-07-13T20:51:57;4.70;;;1.80;;
40953;SDS011;26686;50.130;8.710;2023-07-13T20:56:59;1.67;;;1.17;;
40953;SDS011;26686;50.130;8.710;2023-07-13T21:02:01;4.90;;;2.22;;
40953;SDS011;26686;50.130;8.710;2023-07-13T21:07:02;6.15;;;4.10;;
40953;SDS011;26686;50.130;8.710;2023-07-13T21:12:04;4.63;;;2.95;;
40953;SDS011;26686;50.130;8.710;2023-07-13T21:17:08;4.80;;;3.10;;
40953;SDS011;26686;50.130;8.710;2023-07-13T21:22:13;7.60;;;3.85;;
40953;SDS011;26686;50.130;8.710;2023-07-13T21:27:16;5.68;;;5.07;;
40953;SDS011;26686;50.130;8.710;2023-07-13T21:32:18;6.93;;;5.60;;
40953;SDS011;26686;50.130;8.710;2023-07-13T21:37:24;4.35;;;3.88;;
40953;SDS011;26686;50.130;8.710;2023-07-13T21:42:26;7.65;;;4.75;;
40953;SDS011;26686;50.130;8.710;2023-07-13T21:47:27;8.30;;;7.18;;
40953;SDS011;26686;50.130;8.710;2023-07-13T21:52:29;5.82;;;5.00;;
40953;SDS011;26686;50.130;8.710;2023-07-13T21:57:30;5.80;;;4.25;;
40953;SDS011;26686;50.130;8.710;2023-07-13T22:02:31;5.60;;;4.10;;
40953;SDS011;26686;50.130;8.710;2023-07-13T22:07:33;4.50;;;1.85;;
40953;SDS011;26686;50.130;8.710;2023-07-13T22:12:35;3.60;;;1.55;;
40953;SDS011;26686;50.130;8.710;2023-07-13T22:17:38;2.80;;;1.52;;
40953;SDS011;26686;50.130;8.710;2023-07-13T22:22:46;2.30;;;1.10;;
40953;SDS011;26686;50.130;8.710;2023-07-13T22:27:49;1.83;;;0.98;;
40953;SDS011;26686;50.130;8.710;2023-07-13T22:32:51;2.00;;;0.98;;
40953;SDS011;26686;50.130;8.710;2023-07-13T22:37:55;2.58;;;1.17;;
40953;SDS011;26686;50.130;8.710;2023-07-13T22:43:00;1.88;;;1.00;;
40953;SDS011;26686;50.130;8.710;2023-07-13T22:48:01;1.70;;;0.77;;
40953;SDS011;26686;50.130;8.710;2023-07-13T22:53:04;3.60;;;0.80;;
40953;SDS011;26686;50.130;8.710;2023-07-13T22:58:10;1.90;;;0.95;;
40953;SDS011;26686;50.130;8.710;2023-07-13T23:03:12;1.88;;;0.68;;
40953;SDS011;26686;50.130;8.710;2023-07-13T23:08:16;4.10;;;1.42;;
40953;SDS011;26686;50.130;8.710;2023-07-13T23:13:19;2.47;;;0.80;;
40953;SDS011;26686;50.130;8.710;2023-07-13T23:18:22;5.28;;;1.27;;
40953;SDS011;26686;50.130;8.710;2023-07-13T23:23:24;2.67;;;0.82;;
40953;SDS011;26686;50.130;8.710;2023-07-13T23:28:25;1.70;;;0.90;;
40953;SDS011;26686;50.130;8.710;2023-07-13T23:33:27;3.17;;;1.05;;
40953;SDS011;26686;50.130;8.710;2023-07-13T23:38:29;2.10;;;0.98;;
40953;SDS011;26686;50.130;8.710;2023-07-13T23:43:30;2.10;;;0.70;;
40953;SDS011;26686;50.130;8.710;2023-07-13T23:48:32;4.28;;;0.77;;
40953;SDS011;26686;50.130;8.710;2023-07-13T23:53:33;2.78;;;0.77;;
40953;SDS011;26686;50.130;8.710;2023-07-13T23:58:34;4.53;;;0.98;;
